Time;durP1;ratioP1;P1;durP2;ratioP2;P2;SDS_P1;SDS_P2;PMS_P1;PMS_P2;Temp;Humidity;BMP_temperature;BMP_pressure;BME280_temperature;BME280_humidity;BME280_pressure;Samples;Min_cycle;Max_cycle;Signal;HPM_P1;HPM_P2
2021/03/01 00:01:56;;;;;;;13.88;9.35;;;21.90;46.00;;;;;;5010731;28;20037;-63
2021/03/01 00:04:22;;;;;;;11.98;8.68;;;21.90;46.00;;;;;;5010108;28;20026;-63
2021/03/01 00:06:47;;;;;;;12.60;9.07;;;21.80;46.00;;;;;;5008510;28;20133;-63
2021/03/01 00:09:13;;;;;;;12.60;9.07;;;21.80;46.00;;;;;;5008765;28;20049;-65
2021/03/01 00:11:38;;;;;;;13.73;9.20;;;21.80;46.00;;;;;;5003124;28;20488;-64
2021/03/01 00:14:04;;;;;;;12.73;8.88;;;21.80;46.00;;;;;;5007982;28;20020;-64
2021/03/01 00:16:30;;;;;;;10.60;8.10;;;21.80;46.00;;;;;;5002422;28;20072;-64
2021/03/01 00:18:55;;;;;;;12.40;8.85;;;21.80;46.00;;;;;;5008924;28;20025;-64
2021/03/01 00:21:21;;;;;;;11.50;8.02;;;21.80;46.00;;;;;;5009688;28;20449;-63
2021/03/01 00:23:47;;;;;;;11.15;7.88;;;21.80;46.00;;;;;;5004555;28;20097;-64
2021/03/01 00:26:13;;;;;;;11.32;8.55;;;21.70;46.00;;;;;;5006932;28;20117;-64
2021/03/01 00:28:40;;;;;;;12.85;7.85;;;21.70;45.90;;;;;;5006507;28;20083;-64
2021/03/01 00:31:06;;;;;;;12.45;8.60;;;21.70;46.00;;;;;;5006969;28;20038;-64
2021/03/01 00:33:32;;;;;;;11.05;7.78;;;21.70;46.00;;;;;;5001241;28;20104;-63
2021/03/01 00:35:57;;;;;;;10.63;8.02;;;21.70;46.00;;;;;;5007540;28;20104;-64
2021/03/01 00:38:23;;;;;;;10.77;8.15;;;21.70;45.90;;;;;;5008032;28;20033;-64
2021/03/01 00:40:49;;;;;;;9.85;7.18;;;21.70;46.00;;;;;;5007823;28;20056;-63
2021/03/01 00:43:14;;;;;;;10.65;7.95;;;21.70;46.00;;;;;;5007677;28;20037;-64
2021/03/01 00:45:40;;;;;;;9.20;7.18;;;21.70;46.00;;;;;;5008103;28;20053;-64
2021/03/01 00:48:06;;;;;;;11.18;7.60;;;21.70;46.00;;;;;;5006968;28;20029;-63
2021/03/01 00:50:31;;;;;;;10.93;8.00;;;21.70;46.00;;;;;;5008715;28;20037;-64
2021/03/01 00:52:57;;;;;;;11.15;7.70;;;21.70;46.00;;;;;;5007946;28;20022;-64
2021/03/01 00:55:23;;;;;;;10.13;7.18;;;21.60;46.00;;;;;;5009867;28;20041;-64
2021/03/01 00:57:48;;;;;;;8.88;6.70;;;21.60;45.90;;;;;;5007329;28;20061;-64
2021/03/01 01:00:17;;;;;;;10.00;6.90;;;21.60;46.00;;;;;;5007444;28;20022;-64
2021/03/01 01:02:43;;;;;;;9.63;6.80;;;21.60;46.00;;;;;;5006126;28;20026;-64
2021/03/01 01:05:09;;;;;;;9.40;6.55;;;21.60;46.00;;;;;;5001673;28;20044;-64
2021/03/01 01:07:35;;;;;;;9.60;7.03;;;21.60;45.90;;;;;;5005584;28;20037;-64
2021/03/01 01:10:01;;;;;;;10.05;6.95;;;21.60;46.00;;;;;;5006673;28;20041;-64
2021/03/01 01:12:27;;;;;;;9.60;6.72;;;21.60;46.00;;;;;;5006758;28;20029;-64
2021/03/01 01:14:53;;;;;;;8.73;6.25;;;21.50;45.90;;;;;;5005321;28;20029;-63
2021/03/01 01:17:18;;;;;;;9.85;6.90;;;21.60;46.00;;;;;;5007809;28;20061;-63
2021/03/01 01:19:44;;;;;;;8.85;6.68;;;21.60;46.00;;;;;;5007296;28;20022;-63
2021/03/01 01:22:10;;;;;;;8.85;6.50;;;21.60;46.00;;;;;;5007483;28;20036;-64
2021/03/01 01:24:35;;;;;;;8.48;5.95;;;21.60;46.00;;;;;;5005416;28;20072;-63
2021/03/01 01:27:01;;;;;;;9.15;6.40;;;21.50;46.00;;;;;;5006271;28;20030;-64
2021/03/01 01:29:27;;;;;;;9.05;6.50;;;21.50;46.00;;;;;;5007670;28;20033;-64
2021/03/01 01:31:52;;;;;;;9.18;6.65;;;21.50;46.00;;;;;;5004992;28;20539;-64
2021/03/01 01:34:18;;;;;;;8.88;6.07;;;21.50;46.00;;;;;;5006858;28;20076;-64
2021/03/01 01:36:44;;;;;;;9.13;6.25;;;21.50;46.00;;;;;;5006373;28;20112;-64
2021/03/01 01:39:09;;;;;;;9.05;6.38;;;21.50;46.00;;;;;;5005648;28;20352;-63
2021/03/01 01:41:35;;;;;;;8.80;6.13;;;21.50;45.90;;;;;;5007170;28;20026;-64
2021/03/01 01:44:00;;;;;;;7.00;5.43;;;21.50;46.00;;;;;;5006392;28;20029;-64
2021/03/01 01:46:26;;;;;;;8.13;5.93;;;21.50;45.90;;;;;;5007437;28;20062;-64
2021/03/01 01:48:52;;;;;;;9.35;5.90;;;21.50;46.00;;;;;;5007069;28;20032;-63
2021/03/01 01:51:18;;;;;;;9.52;6.05;;;21.50;45.90;;;;;;5004026;28;20030;-64
2021/03/01 01:53:44;;;;;;;7.95;5.78;;;21.50;45.90;;;;;;5007500;28;20065;-64
2021/03/01 01:56:09;;;;;;;8.68;5.75;;;21.50;46.00;;;;;;5006551;28;20038;-63
2021/03/01 01:58:35;;;;;;;8.65;5.90;;;21.40;45.90;;;;;;5005537;28;20101;-64
2021/03/01 02:01:02;;;;;;;7.43;5.55;;;21.40;45.90;;;;;;5005263;28;20077;-62
2021/03/01 02:03:44;;;;;;;8.50;5.80;;;21.40;45.90;;;;;;5005087;28;20057;-62
2021/03/01 02:06:36;;;;;;;6.93;5.25;;;21.40;45.90;;;;;;5001942;28;20030;-62
2021/03/01 02:09:35;;;;;;;7.65;5.30;;;21.40;45.90;;;;;;5007462;28;20076;-61
2021/03/01 02:12:22;;;;;;;6.90;5.18;;;21.40;45.90;;;;;;5006479;28;20848;-63
2021/03/01 02:15:19;;;;;;;7.20;5.30;;;21.40;45.90;;;;;;5007000;28;20092;-65
2021/03/01 02:17:45;;;;;;;6.40;5.15;;;21.40;45.90;;;;;;5003589;28;20074;-61
2021/03/01 02:20:11;;;;;;;7.80;5.15;;;21.40;45.90;;;;;;5007673;28;20029;-63
2021/03/01 02:22:38;;;;;;;7.68;5.32;;;21.40;45.90;;;;;;5006170;28;20080;-64
2021/03/01 02:25:13;;;;;;;6.70;5.18;;;21.30;45.90;;;;;;5007791;28;20023;-63
2021/03/01 02:27:46;;;;;;;6.78;5.13;;;21.30;45.90;;;;;;4994733;28;20022;-63
2021/03/01 02:30:25;;;;;;;7.65;5.28;;;21.30;45.90;;;;;;5007429;28;20091;-62
2021/03/01 02:32:55;;;;;;;6.70;4.97;;;21.30;45.90;;;;;;5005678;28;20029;-61
2021/03/01 02:35:22;;;;;;;6.40;4.78;;;21.30;46.40;;;;;;4998598;28;20060;-63
2021/03/01 02:37:48;;;;;;;7.22;5.15;;;21.30;45.90;;;;;;5004690;28;20033;-64
2021/03/01 02:40:19;;;;;;;7.10;4.90;;;21.30;45.90;;;;;;5006468;28;20026;-61
2021/03/01 02:42:46;;;;;;;6.32;4.90;;;21.30;45.90;;;;;;5006302;28;20022;-63
2021/03/01 02:45:13;;;;;;;6.88;5.18;;;21.30;45.90;;;;;;5007372;28;20093;-62
2021/03/01 02:47:39;;;;;;;6.35;4.90;;;21.30;45.90;;;;;;5002708;28;20026;-63
2021/03/01 02:50:06;;;;;;;6.82;4.95;;;21.30;45.90;;;;;;5002528;28;20476;-63
2021/03/01 02:52:33;;;;;;;6.32;5.00;;;21.30;46.00;;;;;;5006376;28;20042;-63
2021/03/01 02:54:59;;;;;;;6.22;4.65;;;21.30;46.00;;;;;;5008101;28;20926;-65
2021/03/01 02:57:25;;;;;;;5.80;4.38;;;21.30;45.90;;;;;;5006028;28;20641;-62
2021/03/01 02:59:54;;;;;;;6.50;4.53;;;21.20;45.90;;;;;;5005180;28;20026;-62
2021/03/01 03:02:22;;;;;;;6.88;4.72;;;21.20;45.90;;;;;;4990841;28;20039;-65
2021/03/01 03:04:48;;;;;;;6.22;4.68;;;21.20;45.90;;;;;;5008236;28;20030;-63
2021/03/01 03:07:16;;;;;;;5.53;4.28;;;21.20;45.90;;;;;;5006772;28;20427;-62
2021/03/01 03:09:45;;;;;;;5.88;4.35;;;21.20;45.90;;;;;;5001249;28;20121;-63
2021/03/01 03:12:12;;;;;;;5.95;4.35;;;21.20;45.90;;;;;;5004671;28;20113;-65
2021/03/01 03:14:39;;;;;;;6.20;4.05;;;21.20;45.90;;;;;;5008639;28;20034;-63
2021/03/01 03:17:05;;;;;;;6.28;4.38;;;21.20;45.90;;;;;;5009329;28;20129;-65
2021/03/01 03:19:36;;;;;;;6.30;4.65;;;21.20;46.00;;;;;;5010858;28;20098;-62
2021/03/01 03:22:03;;;;;;;6.50;4.57;;;21.20;45.90;;;;;;5009094;28;20058;-63
2021/03/01 03:24:29;;;;;;;6.97;4.88;;;21.20;45.90;;;;;;5011179;28;20448;-61
2021/03/01 03:26:55;;;;;;;5.90;4.20;;;21.20;45.90;;;;;;5010457;28;20135;-62
2021/03/01 03:29:20;;;;;;;6.47;3.97;;;21.20;45.90;;;;;;5008097;28;20444;-62
2021/03/01 03:31:46;;;;;;;5.00;4.00;;;21.20;45.90;;;;;;5009330;28;20034;-62
2021/03/01 03:34:12;;;;;;;6.60;4.30;;;21.20;45.90;;;;;;5003900;28;20030;-62
2021/03/01 03:36:46;;;;;;;6.05;4.40;;;21.20;45.90;;;;;;5011020;28;20559;-62
2021/03/01 03:39:14;;;;;;;5.70;3.90;;;21.10;45.80;;;;;;5006107;28;20440;-62
2021/03/01 03:41:41;;;;;;;5.95;4.10;;;21.10;45.90;;;;;;5010193;28;20040;-63
2021/03/01 03:44:14;;;;;;;5.45;3.78;;;21.10;45.90;;;;;;5008963;28;20080;-61
2021/03/01 03:46:40;;;;;;;5.15;3.78;;;21.10;45.90;;;;;;5010035;28;20034;-63
2021/03/01 03:49:10;;;;;;;5.22;3.95;;;21.10;45.80;;;;;;5010616;28;20049;-62
2021/03/01 03:51:38;;;;;;;5.78;4.28;;;21.10;45.80;;;;;;5010136;28;20618;-61
2021/03/01 03:54:15;;;;;;;4.75;3.70;;;21.10;45.90;;;;;;5010953;28;20609;-62
2021/03/01 03:56:45;;;;;;;5.40;3.97;;;21.10;45.90;;;;;;5009937;28;20087;-63
2021/03/01 03:59:11;;;;;;;5.13;3.83;;;21.10;45.90;;;;;;5006466;28;20023;-62
2021/03/01 04:01:39;;;;;;;4.72;3.63;;;21.10;45.90;;;;;;5004877;28;20085;-61
2021/03/01 04:04:10;;;;;;;4.97;3.83;;;21.10;45.90;;;;;;5010946;28;20310;-62
2021/03/01 04:06:39;;;;;;;5.13;3.50;;;21.10;45.80;;;;;;5025485;28;20034;-64
2021/03/01 04:09:08;;;;;;;4.43;3.42;;;21.10;45.90;;;;;;5010490;28;20108;-63
2021/03/01 04:11:35;;;;;;;5.10;3.85;;;21.10;45.80;;;;;;5008075;28;20028;-61
2021/03/01 04:14:01;;;;;;;5.82;4.13;;;21.10;45.90;;;;;;5008353;28;20026;-62
2021/03/01 04:16:30;;;;;;;5.45;3.70;;;21.10;45.90;;;;;;5009137;28;20037;-62
2021/03/01 04:18:59;;;;;;;6.00;4.00;;;21.00;45.80;;;;;;5005677;28;20113;-63
2021/03/01 04:21:27;;;;;;;5.13;3.50;;;21.10;45.80;;;;;;5010417;28;20041;-62
2021/03/01 04:23:54;;;;;;;4.50;3.38;;;21.00;45.80;;;;;;5009496;28;20068;-63
2021/03/01 04:26:21;;;;;;;4.47;3.40;;;21.10;45.80;;;;;;5008315;28;20029;-62
2021/03/01 04:28:48;;;;;;;4.80;3.60;;;21.00;45.80;;;;;;5008958;28;20036;-63
2021/03/01 04:31:16;;;;;;;4.25;3.28;;;21.10;45.80;;;;;;5008578;28;20045;-61
2021/03/01 04:33:43;;;;;;;4.93;3.25;;;21.10;45.80;;;;;;5007057;28;20057;-61
2021/03/01 04:36:09;;;;;;;4.82;3.60;;;21.00;45.80;;;;;;5006958;28;20401;-63
2021/03/01 04:38:36;;;;;;;4.57;3.38;;;21.00;45.80;;;;;;5005880;28;20018;-63
2021/03/01 04:41:03;;;;;;;4.53;3.20;;;21.10;45.80;;;;;;5008484;28;20571;-62
2021/03/01 04:43:30;;;;;;;4.57;3.17;;;21.00;45.80;;;;;;5007937;28;20049;-62
2021/03/01 04:45:56;;;;;;;4.45;3.10;;;21.10;45.80;;;;;;5007743;28;20453;-62
2021/03/01 04:48:25;;;;;;;4.90;3.15;;;21.10;45.80;;;;;;5008443;28;20399;-64
2021/03/01 04:50:52;;;;;;;4.43;3.00;;;21.00;45.80;;;;;;5008118;28;20460;-63
2021/03/01 04:53:19;;;;;;;4.80;3.25;;;21.00;45.80;;;;;;5008726;28;20429;-63
2021/03/01 04:55:45;;;;;;;4.38;3.15;;;21.00;45.80;;;;;;5008863;28;20053;-62
2021/03/01 04:58:11;;;;;;;4.07;2.92;;;21.00;45.80;;;;;;5008153;28;20034;-63
2021/03/01 05:00:38;;;;;;;4.80;3.30;;;21.00;45.80;;;;;;5004681;28;20950;-62
2021/03/01 05:03:06;;;;;;;4.45;3.40;;;21.00;45.80;;;;;;5000829;28;20116;-62
2021/03/01 05:05:33;;;;;;;4.90;3.40;;;21.00;45.80;;;;;;5002869;28;20573;-62
2021/03/01 05:08:05;;;;;;;4.53;3.40;;;21.00;45.80;;;;;;5008265;28;20380;-62
2021/03/01 05:10:32;;;;;;;4.15;3.03;;;21.00;45.80;;;;;;5009182;28;20034;-62
2021/03/01 05:12:58;;;;;;;4.13;2.90;;;21.00;45.80;;;;;;5004700;28;20469;-64
2021/03/01 05:15:23;;;;;;;4.25;2.90;;;21.00;45.80;;;;;;5003937;28;20037;-63
2021/03/01 05:17:49;;;;;;;4.78;3.08;;;21.00;45.80;;;;;;5007408;28;20037;-65
2021/03/01 05:20:15;;;;;;;4.18;2.72;;;21.00;45.80;;;;;;5000226;28;20030;-61
2021/03/01 05:22:41;;;;;;;4.10;2.80;;;21.00;45.80;;;;;;5000905;28;20034;-62
2021/03/01 05:25:07;;;;;;;4.50;3.08;;;21.00;45.80;;;;;;5007285;28;20037;-65
2021/03/01 05:27:34;;;;;;;4.13;2.95;;;21.00;45.80;;;;;;5006581;28;20175;-62
2021/03/01 05:30:01;;;;;;;4.82;3.30;;;21.00;45.80;;;;;;4997609;28;20109;-62
2021/03/01 05:32:26;;;;;;;4.38;3.10;;;21.00;45.80;;;;;;5003616;28;20041;-65
2021/03/01 05:34:53;;;;;;;4.00;2.95;;;21.00;45.80;;;;;;5003555;28;20091;-61
2021/03/01 05:37:18;;;;;;;4.45;2.78;;;20.90;45.80;;;;;;5008436;28;20033;-65
2021/03/01 05:39:44;;;;;;;4.22;2.90;;;21.00;45.90;;;;;;5008748;28;20162;-61
2021/03/01 05:42:15;;;;;;;3.83;2.70;;;20.90;45.80;;;;;;5006774;28;20097;-63
2021/03/01 05:44:41;;;;;;;4.28;2.90;;;21.00;45.90;;;;;;5003462;28;20157;-61
2021/03/01 05:47:09;;;;;;;5.15;3.10;;;21.00;45.90;;;;;;5008539;28;20104;-64
2021/03/01 05:49:39;;;;;;;3.83;2.78;;;21.00;45.90;;;;;;5008079;28;20116;-63
2021/03/01 05:52:07;;;;;;;3.70;2.50;;;20.90;45.90;;;;;;5007775;28;20060;-62
2021/03/01 05:54:35;;;;;;;3.80;2.63;;;21.00;46.00;;;;;;5007983;28;20104;-62
2021/03/01 05:57:06;;;;;;;4.20;2.70;;;20.90;45.90;;;;;;5008169;28;20049;-64
2021/03/01 05:59:33;;;;;;;3.47;2.60;;;20.90;45.90;;;;;;5005221;28;20105;-61
2021/03/01 06:01:58;;;;;;;3.15;2.33;;;20.90;46.00;;;;;;5007999;28;20038;-62
2021/03/01 06:04:27;;;;;;;3.55;2.50;;;20.90;46.00;;;;;;4994407;28;20034;-62
2021/03/01 06:06:54;;;;;;;3.55;2.60;;;20.90;46.00;;;;;;5007408;28;20033;-62
2021/03/01 06:09:20;;;;;;;3.33;2.47;;;20.90;46.00;;;;;;5008329;28;20463;-65
2021/03/01 06:11:52;;;;;;;3.72;2.50;;;20.90;46.00;;;;;;5002753;28;20026;-63
2021/03/01 06:14:18;;;;;;;3.53;2.38;;;20.90;46.00;;;;;;5007380;28;20069;-62
2021/03/01 06:17:08;;;;;;;3.88;2.70;;;20.90;46.10;;;;;;5008098;28;20080;-63
2021/03/01 06:19:53;;;;;;;3.15;2.30;;;20.90;46.10;;;;;;5007480;28;20056;-61
2021/03/01 06:22:43;;;;;;;3.60;2.50;;;20.90;46.10;;;;;;5004650;28;20250;-64
2021/03/01 06:25:13;;;;;;;3.65;2.50;;;20.90;46.10;;;;;;5006690;28;20049;-63
2021/03/01 06:27:47;;;;;;;3.10;2.30;;;20.90;46.10;;;;;;5009873;28;20128;-61
2021/03/01 06:30:14;;;;;;;3.78;2.38;;;20.90;46.10;;;;;;5007097;28;20030;-62
2021/03/01 06:32:40;;;;;;;3.42;2.20;;;20.90;46.10;;;;;;5006347;28;20486;-64
2021/03/01 06:35:29;;;;;;;3.58;2.50;;;20.90;46.20;;;;;;5006122;28;20065;-63
2021/03/01 06:38:36;;;;;;;3.10;2.28;;;20.90;46.20;;;;;;5003797;28;20376;-65
2021/03/01 06:41:07;;;;;;;3.30;2.40;;;20.90;46.20;;;;;;5001527;28;20025;-69
2021/03/01 06:43:34;;;;;;;3.83;2.50;;;20.90;46.90;;;;;;5003867;28;20033;-67
2021/03/01 06:46:09;;;;;;;3.67;2.38;;;21.00;48.10;;;;;;5007707;28;20469;-69
2021/03/01 06:48:35;;;;;;;3.60;2.38;;;21.10;48.30;;;;;;4993027;28;20167;-69
2021/03/01 06:51:01;;;;;;;3.20;1.83;;;21.30;48.20;;;;;;5005600;28;20173;-70
2021/03/01 06:53:27;;;;;;;3.00;2.10;;;21.30;48.20;;;;;;5005405;28;20288;-71
2021/03/01 06:56:02;;;;;;;2.80;1.90;;;21.40;47.70;;;;;;5006108;28;20038;-69
2021/03/01 06:58:33;;;;;;;2.97;2.00;;;21.30;48.10;;;;;;5007043;28;20030;-70
2021/03/01 07:01:04;;;;;;;2.97;2.00;;;21.40;47.50;;;;;;5003560;28;20440;-68
2021/03/01 07:03:30;;;;;;;3.30;2.20;;;21.40;47.40;;;;;;5000451;28;20061;-68
2021/03/01 07:06:00;;;;;;;3.13;2.00;;;21.40;47.80;;;;;;5005931;28;20452;-67
2021/03/01 07:08:40;;;;;;;2.97;1.90;;;21.60;47.90;;;;;;5003918;28;20049;-68
2021/03/01 07:11:31;;;;;;;3.92;2.20;;;21.60;47.60;;;;;;5005051;28;20034;-68
2021/03/01 07:14:08;;;;;;;2.85;1.80;;;21.60;47.50;;;;;;5003176;28;20441;-68
2021/03/01 07:16:40;;;;;;;2.55;1.77;;;21.70;47.50;;;;;;5005351;28;20030;-68
2021/03/01 07:19:11;;;;;;;2.50;1.80;;;21.70;47.40;;;;;;5003563;28;20098;-67
2021/03/01 07:21:39;;;;;;;3.13;2.08;;;21.70;47.40;;;;;;5006092;28;20105;-68
2021/03/01 07:24:07;;;;;;;2.92;1.90;;;21.80;47.90;;;;;;4994864;28;20026;-65
2021/03/01 07:26:33;;;;;;;3.40;1.80;;;21.90;47.70;;;;;;5008153;28;20034;-69
2021/03/01 07:29:09;;;;;;;3.35;1.80;;;22.00;47.80;;;;;;4992927;28;20047;-67
2021/03/01 07:31:36;;;;;;;2.55;1.80;;;22.00;47.50;;;;;;5005676;28;20483;-67
2021/03/01 07:34:09;;;;;;;2.63;1.83;;;22.00;47.90;;;;;;5008056;28;20471;-66
2021/03/01 07:36:36;;;;;;;2.63;1.70;;;22.00;47.40;;;;;;5006416;28;20379;-68
2021/03/01 07:39:04;;;;;;;3.03;2.03;;;22.00;47.50;;;;;;5001811;28;20022;-68
2021/03/01 07:41:30;;;;;;;3.05;1.70;;;22.10;47.80;;;;;;4996174;28;20415;-67
2021/03/01 07:43:57;;;;;;;2.70;1.67;;;22.20;47.60;;;;;;5002147;28;20125;-68
2021/03/01 07:46:46;;;;;;;3.00;1.83;;;22.30;47.50;;;;;;5008144;28;20041;-68
2021/03/01 07:49:38;;;;;;;2.85;1.70;;;22.30;47.50;;;;;;5005974;28;20034;-64
2021/03/01 07:52:04;;;;;;;2.60;1.50;;;22.30;47.40;;;;;;4999566;28;20088;-68
2021/03/01 07:54:48;;;;;;;2.78;1.83;;;22.40;47.20;;;;;;5001812;28;20030;-66
2021/03/01 07:57:14;;;;;;;2.97;1.83;;;22.40;47.20;;;;;;5008019;28;20070;-67
2021/03/01 07:59:40;;;;;;;2.65;1.60;;;22.50;48.10;;;;;;4997674;28;20180;-68
2021/03/01 08:02:09;;;;;;;2.47;1.70;;;22.50;47.50;;;;;;5000998;28;20068;-69
2021/03/01 08:04:35;;;;;;;2.95;1.70;;;22.60;47.50;;;;;;4999034;28;20052;-66
2021/03/01 08:07:01;;;;;;;2.13;1.60;;;22.60;47.30;;;;;;5009597;28;20388;-69
2021/03/01 08:09:43;;;;;;;2.05;1.40;;;22.60;47.30;;;;;;5005963;28;20057;-68
2021/03/01 08:12:10;;;;;;;2.30;1.50;;;22.70;47.20;;;;;;5011901;28;20041;-65
2021/03/01 08:14:50;;;;;;;2.55;1.42;;;22.70;47.20;;;;;;5010385;28;20033;-69
2021/03/01 08:17:29;;;;;;;2.50;1.60;;;22.70;47.30;;;;;;5002303;28;20501;-66
2021/03/01 08:19:56;;;;;;;2.00;1.40;;;22.70;47.30;;;;;;5009457;28;20026;-67
2021/03/01 08:22:22;;;;;;;2.38;1.77;;;22.80;47.30;;;;;;5009972;28;20022;-68
2021/03/01 08:24:49;;;;;;;2.63;1.75;;;22.80;47.30;;;;;;5011549;28;20352;-66
2021/03/01 08:27:27;;;;;;;2.10;1.40;;;22.80;47.30;;;;;;5011369;28;20037;-68
2021/03/01 08:30:18;;;;;;;2.38;1.55;;;22.90;47.30;;;;;;5007611;28;20462;-65
2021/03/01 08:33:04;;;;;;;2.30;1.50;;;22.90;47.30;;;;;;4996860;28;20066;-65
2021/03/01 08:35:29;;;;;;;2.08;1.30;;;23.00;47.30;;;;;;5005469;28;20030;-68
2021/03/01 08:37:55;;;;;;;2.35;1.60;;;23.00;47.20;;;;;;5009523;28;20847;-66
2021/03/01 08:40:22;;;;;;;1.80;1.40;;;23.00;47.20;;;;;;5009138;28;20435;-68
2021/03/01 08:43:00;;;;;;;1.98;1.30;;;23.10;47.30;;;;;;5007632;28;20032;-69
2021/03/01 08:45:32;;;;;;;2.22;1.55;;;23.10;47.30;;;;;;5004802;28;20639;-69
2021/03/01 08:48:03;;;;;;;2.25;1.23;;;23.10;47.30;;;;;;5003324;28;20454;-67
2021/03/01 08:50:32;;;;;;;2.05;1.35;;;23.20;47.40;;;;;;5001148;28;20101;-66
2021/03/01 08:52:57;;;;;;;3.07;1.30;;;23.20;47.40;;;;;;5001341;28;20026;-68
2021/03/01 08:55:24;;;;;;;2.40;1.52;;;23.30;47.70;;;;;;5005878;28;20279;-68
2021/03/01 08:58:02;;;;;;;2.40;1.50;;;23.30;48.00;;;;;;5010528;28;20037;-68
2021/03/01 09:00:30;;;;;;;2.03;1.40;;;23.40;47.90;;;;;;5008573;28;20094;-67
2021/03/01 09:03:18;;;;;;;4.10;1.33;;;23.40;48.00;;;;;;5009232;28;20033;-65
2021/03/01 09:05:46;;;;;;;2.30;1.27;;;23.40;47.90;;;;;;5007017;28;20026;-64
2021/03/01 09:08:13;;;;;;;2.13;1.38;;;23.50;48.10;;;;;;5007574;28;20124;-68
2021/03/01 09:10:45;;;;;;;2.97;1.50;;;23.50;49.00;;;;;;5009877;28;20029;-65
2021/03/01 09:13:19;;;;;;;2.10;1.50;;;23.60;48.10;;;;;;5007736;28;20788;-67
2021/03/01 09:15:46;;;;;;;3.17;1.40;;;23.60;48.00;;;;;;5006843;28;20042;-65
2021/03/01 09:18:12;;;;;;;2.85;1.80;;;23.60;48.00;;;;;;5008077;28;20034;-61
2021/03/01 09:20:52;;;;;;;2.95;2.10;;;23.70;46.70;;;;;;5004688;28;20033;-63
2021/03/01 09:23:32;;;;;;;2.85;1.80;;;23.60;44.40;;;;;;5007338;28;20029;-71
2021/03/01 09:25:58;;;;;;;2.40;1.70;;;23.60;44.10;;;;;;5008618;28;20619;-69
2021/03/01 09:28:32;;;;;;;2.45;1.70;;;23.50;44.10;;;;;;5001775;28;20026;-67
2021/03/01 09:31:10;;;;;;;3.08;2.00;;;23.50;44.60;;;;;;5006644;28;20044;-67
2021/03/01 09:33:37;;;;;;;2.72;1.90;;;23.50;43.90;;;;;;5023300;28;20053;-69
2021/03/01 09:36:03;;;;;;;3.20;1.80;;;23.50;43.90;;;;;;5008815;28;20065;-68
2021/03/01 09:38:29;;;;;;;3.22;1.90;;;23.50;43.80;;;;;;5005794;28;20092;-65
2021/03/01 09:41:00;;;;;;;3.00;1.92;;;23.50;43.70;;;;;;5004184;28;20022;-69
2021/03/01 09:43:26;;;;;;;2.67;1.75;;;23.50;43.70;;;;;;5003058;28;20109;-71
2021/03/01 09:45:52;;;;;;;2.88;1.80;;;23.50;43.70;;;;;;5008407;28;20114;-70
2021/03/01 09:48:19;;;;;;;2.67;1.80;;;23.50;43.70;;;;;;5007535;28;20053;-71
2021/03/01 09:50:45;;;;;;;2.53;1.77;;;23.50;43.70;;;;;;5006145;28;20446;-68
2021/03/01 09:53:13;;;;;;;3.08;2.00;;;23.50;43.60;;;;;;5008478;28;20468;-65
2021/03/01 09:55:39;;;;;;;2.60;1.70;;;23.60;43.60;;;;;;5003762;28;20034;-69
2021/03/01 09:58:24;;;;;;;2.72;1.70;;;23.60;43.60;;;;;;5007248;28;20038;-70
2021/03/01 10:00:50;;;;;;;2.47;1.75;;;23.60;43.60;;;;;;4999438;28;20034;-69
2021/03/01 10:03:15;;;;;;;2.80;1.70;;;23.60;43.50;;;;;;5000136;28;20115;-72
2021/03/01 10:05:51;;;;;;;2.30;1.75;;;23.60;43.60;;;;;;5003961;28;20608;-67
2021/03/01 10:08:25;;;;;;;2.50;1.58;;;23.60;43.70;;;;;;5007037;28;20025;-73
2021/03/01 10:10:52;;;;;;;2.53;1.70;;;23.60;43.60;;;;;;5004121;28;20036;-69
2021/03/01 10:13:27;;;;;;;2.72;1.70;;;23.60;43.70;;;;;;4998118;28;20472;-68
2021/03/01 10:15:54;;;;;;;2.67;1.80;;;23.50;43.50;;;;;;5005912;28;20117;-67
2021/03/01 10:18:25;;;;;;;2.00;1.55;;;23.60;43.60;;;;;;5013035;28;20133;-68
2021/03/01 10:20:58;;;;;;;2.75;1.70;;;23.60;43.60;;;;;;5000200;28;20116;-67
2021/03/01 10:23:29;;;;;;;2.60;1.80;;;23.60;43.70;;;;;;5002227;28;20072;-66
2021/03/01 10:26:19;;;;;;;2.72;1.77;;;23.60;43.60;;;;;;4999587;28;20088;-65
2021/03/01 10:29:01;;;;;;;2.60;1.77;;;23.60;44.20;;;;;;4991903;28;20026;-69
2021/03/01 10:31:36;;;;;;;2.28;1.55;;;23.60;43.60;;;;;;5001715;28;20042;-68
2021/03/01 10:34:06;;;;;;;2.30;1.75;;;23.60;43.70;;;;;;5003075;28;20553;-70
2021/03/01 10:36:33;;;;;;;2.58;1.52;;;23.60;43.70;;;;;;5006904;28;20041;-71
2021/03/01 10:39:06;;;;;;;2.47;1.70;;;23.60;43.60;;;;;;5007169;28;20022;-71
2021/03/01 10:41:41;;;;;;;2.85;1.88;;;23.60;43.70;;;;;;5006014;28;20045;-68
2021/03/01 10:44:08;;;;;;;2.42;1.60;;;23.60;43.70;;;;;;5007032;28;20038;-68
2021/03/01 10:46:39;;;;;;;2.50;1.70;;;23.60;43.70;;;;;;5005973;28;20026;-63
2021/03/01 10:49:30;;;;;;;2.40;1.67;;;23.70;43.80;;;;;;5004528;28;20217;-69
2021/03/01 10:51:58;;;;;;;2.60;1.67;;;23.70;43.70;;;;;;5000251;28;20151;-69
2021/03/01 10:54:25;;;;;;;2.30;1.60;;;23.70;43.60;;;;;;5001045;28;20495;-66
2021/03/01 10:56:52;;;;;;;2.72;1.73;;;23.70;43.60;;;;;;5007780;28;20030;-69
2021/03/01 10:59:18;;;;;;;2.25;1.73;;;23.70;43.70;;;;;;5003116;28;20033;-67
2021/03/01 11:01:46;;;;;;;2.30;1.60;;;23.70;43.60;;;;;;4996503;28;20073;-67
2021/03/01 11:04:16;;;;;;;2.17;1.47;;;23.70;43.60;;;;;;4999925;28;20639;-69
2021/03/01 11:06:44;;;;;;;3.00;1.60;;;23.70;43.60;;;;;;5005837;28;20026;-68
2021/03/01 11:09:10;;;;;;;2.17;1.45;;;23.70;43.70;;;;;;5006324;28;20033;-67
2021/03/01 11:11:37;;;;;;;2.67;1.38;;;23.70;43.60;;;;;;5006329;28;20396;-67
2021/03/01 11:14:04;;;;;;;2.50;1.60;;;23.70;43.60;;;;;;5000291;28;20660;-67
2021/03/01 11:16:30;;;;;;;2.53;1.55;;;23.80;43.60;;;;;;5004049;28;20171;-68
2021/03/01 11:18:56;;;;;;;2.60;1.60;;;23.80;43.60;;;;;;5000014;28;20113;-67
2021/03/01 11:21:22;;;;;;;2.55;1.52;;;23.80;43.60;;;;;;5002904;28;20460;-69
2021/03/01 11:23:47;;;;;;;2.65;1.80;;;23.80;43.60;;;;;;5002099;28;20037;-69
2021/03/01 11:26:14;;;;;;;2.47;1.70;;;23.80;43.50;;;;;;5006197;28;20140;-70
2021/03/01 11:28:40;;;;;;;2.20;1.50;;;23.80;43.50;;;;;;5004418;28;20037;-71
2021/03/01 11:31:06;;;;;;;2.40;1.65;;;23.80;43.50;;;;;;5004344;28;20026;-60
2021/03/01 11:33:32;;;;;;;2.40;1.60;;;23.80;43.60;;;;;;5002393;28;20084;-58
2021/03/01 11:35:57;;;;;;;3.00;1.60;;;23.80;43.40;;;;;;5006041;28;20066;-55
2021/03/01 11:38:24;;;;;;;2.00;1.33;;;23.80;43.30;;;;;;5009306;28;20579;-58
2021/03/01 11:40:51;;;;;;;2.40;1.60;;;23.90;43.30;;;;;;5008717;28;20755;-55
2021/03/01 11:43:17;;;;;;;2.40;1.42;;;23.80;43.20;;;;;;5008221;28;20025;-60
2021/03/01 11:45:43;;;;;;;2.35;1.52;;;23.80;43.70;;;;;;5009158;28;20106;-58
2021/03/01 11:48:14;;;;;;;2.22;1.50;;;23.80;43.20;;;;;;5008180;28;20179;-60
2021/03/01 11:50:42;;;;;;;2.53;1.63;;;23.80;43.20;;;;;;5007546;28;20039;-56
2021/03/01 11:53:08;;;;;;;2.22;1.50;;;23.90;43.20;;;;;;5009486;28;20057;-60
2021/03/01 11:55:34;;;;;;;2.50;1.60;;;23.90;43.20;;;;;;5010124;28;20460;-56
2021/03/01 11:58:00;;;;;;;2.17;1.42;;;23.90;43.20;;;;;;5005146;28;20038;-53
2021/03/01 12:00:25;;;;;;;2.80;1.67;;;23.90;43.20;;;;;;5006063;28;20034;-60
2021/03/01 12:02:51;;;;;;;2.30;1.50;;;23.90;43.20;;;;;;4997384;28;20247;-58
2021/03/01 12:05:17;;;;;;;3.08;1.73;;;23.90;43.20;;;;;;5003816;28;20045;-61
2021/03/01 12:07:44;;;;;;;2.35;1.60;;;23.90;43.30;;;;;;5007057;28;20025;-60
2021/03/01 12:10:10;;;;;;;2.25;1.50;;;23.90;43.30;;;;;;5006132;28;20042;-62
2021/03/01 12:12:36;;;;;;;1.95;1.30;;;24.00;43.30;;;;;;5007993;28;20034;-60
2021/03/01 12:15:02;;;;;;;2.28;1.35;;;24.00;43.30;;;;;;5006550;28;20037;-60
2021/03/01 12:17:28;;;;;;;2.20;1.52;;;24.00;43.30;;;;;;5007884;28;20087;-60
2021/03/01 12:19:54;;;;;;;2.20;1.40;;;24.00;43.20;;;;;;5005685;28;20019;-59
2021/03/01 12:22:19;;;;;;;2.17;1.40;;;24.00;43.10;;;;;;5006253;28;20029;-60
2021/03/01 12:24:45;;;;;;;2.00;1.40;;;24.00;43.10;;;;;;5008480;28;20030;-61
2021/03/01 12:27:11;;;;;;;1.80;1.23;;;24.00;43.10;;;;;;5009857;28;20465;-62
2021/03/01 12:29:36;;;;;;;2.15;1.40;;;24.10;43.20;;;;;;5007690;28;20037;-62
2021/03/01 12:32:02;;;;;;;2.25;1.35;;;24.10;43.20;;;;;;5008527;28;20129;-60
2021/03/01 12:34:28;;;;;;;1.90;1.30;;;24.10;43.20;;;;;;5008733;28;20038;-59
2021/03/01 12:36:53;;;;;;;1.88;1.10;;;24.10;43.10;;;;;;4999425;28;20030;-61
2021/03/01 12:39:19;;;;;;;2.20;1.35;;;24.10;43.10;;;;;;5001587;28;20022;-60
2021/03/01 12:41:44;;;;;;;1.85;1.30;;;24.10;43.20;;;;;;5004729;28;20022;-63
2021/03/01 12:44:10;;;;;;;1.95;1.25;;;24.10;43.20;;;;;;5003990;28;20045;-61
2021/03/01 12:46:36;;;;;;;2.10;1.42;;;24.10;43.10;;;;;;5007613;28;20040;-61
2021/03/01 12:49:02;;;;;;;1.73;1.25;;;24.10;43.10;;;;;;5006045;28;20456;-65
2021/03/01 12:51:27;;;;;;;1.98;1.30;;;24.20;43.10;;;;;;5021871;28;20033;-63
2021/03/01 12:53:53;;;;;;;2.08;1.40;;;24.20;43.10;;;;;;5009665;28;20030;-59
2021/03/01 12:56:19;;;;;;;2.33;1.33;;;24.20;43.00;;;;;;5004787;28;20045;-56